createdAt,value
2024-02-02T00:00:22.483Z,96189.06
2024-02-02T00:02:48.968Z,96199.56
2024-02-02T00:05:15.445Z,96196.81
2024-02-02T00:07:41.834Z,96205.84
2024-02-02T00:10:08.238Z,96204.88
2024-02-02T00:12:34.659Z,96208.09
2024-02-02T00:15:01.245Z,96209.97
2024-02-02T00:17:27.657Z,96215.00
2024-02-02T00:19:54.120Z,96207.97
2024-02-02T00:22:20.534Z,96209.16
2024-02-02T00:24:46.931Z,96212.25
2024-02-02T00:27:13.383Z,96215.34
2024-02-02T00:29:39.798Z,96217.63
2024-02-02T00:32:06.209Z,96213.34
2024-02-02T00:34:32.816Z,96215.59
2024-02-02T00:36:59.316Z,96228.47
2024-02-02T00:39:25.812Z,96228.13
2024-02-02T00:41:52.301Z,96238.59
2024-02-02T00:44:18.708Z,96239.47
2024-02-02T00:46:45.088Z,96232.19
2024-02-02T00:49:11.575Z,96233.25
2024-02-02T00:51:38.090Z,96237.91
2024-02-02T00:54:04.521Z,96237.16
2024-02-02T00:56:30.954Z,96243.50
2024-02-02T00:58:57.340Z,96240.03
2024-02-02T01:01:24.066Z,96240.50
2024-02-02T01:03:50.556Z,96243.72
2024-02-02T01:06:17.090Z,96244.78
2024-02-02T01:08:43.543Z,96238.59
2024-02-02T01:11:10.205Z,96233.47
2024-02-02T01:13:36.614Z,96232.88
2024-02-02T01:16:03.011Z,96232.13
2024-02-02T01:18:29.608Z,96235.59
2024-02-02T01:20:56.218Z,96238.47
2024-02-02T01:23:22.657Z,96234.88
2024-02-02T01:25:49.048Z,96233.25
2024-02-02T01:28:15.450Z,96243.16
2024-02-02T01:30:41.881Z,96238.84
2024-02-02T01:33:08.451Z,96239.34
2024-02-02T01:35:34.930Z,96240.28
2024-02-02T01:38:01.330Z,96242.69
2024-02-02T01:40:27.762Z,96245.78
2024-02-02T01:42:54.159Z,96248.63
2024-02-02T01:45:20.642Z,96248.66
2024-02-02T01:47:47.185Z,96256.50
2024-02-02T01:50:13.683Z,96252.13
2024-02-02T01:52:40.110Z,96250.44
2024-02-02T01:55:06.508Z,96249.00
2024-02-02T01:57:32.936Z,96246.97
2024-02-02T01:59:59.339Z,96255.19
2024-02-02T02:02:25.727Z,96257.41
2024-02-02T02:04:52.132Z,96249.09
2024-02-02T02:07:18.558Z,96253.97
2024-02-02T02:09:45.041Z,96256.00
2024-02-02T02:12:11.474Z,96251.47
2024-02-02T02:14:37.904Z,96261.22
2024-02-02T02:17:04.319Z,96253.00
2024-02-02T02:19:30.845Z,96248.97
2024-02-02T02:21:57.305Z,96263.22
2024-02-02T02:24:23.747Z,96262.63
2024-02-02T02:26:50.169Z,96260.72
2024-02-02T02:29:16.541Z,96254.31
2024-02-02T02:31:42.936Z,96260.50
2024-02-02T02:34:09.523Z,96259.53
2024-02-02T02:36:36.039Z,96248.41
2024-02-02T02:39:02.476Z,96253.38
2024-02-02T02:41:28.872Z,96248.28
2024-02-02T02:43:55.282Z,96243.25
2024-02-02T02:46:21.675Z,96253.97
2024-02-02T02:48:48.182Z,96254.53
2024-02-02T02:51:14.748Z,96247.00
2024-02-02T02:53:41.169Z,96239.97
2024-02-02T02:56:07.580Z,96236.97
2024-02-02T02:58:33.985Z,96230.91
2024-02-02T03:01:00.433Z,96237.03
2024-02-02T03:03:26.906Z,96232.22
2024-02-02T03:05:53.424Z,96234.66
2024-02-02T03:08:19.900Z,96233.31
2024-02-02T03:10:46.301Z,96230.53
2024-02-02T03:13:12.682Z,96234.28
2024-02-02T03:15:39.060Z,96236.34
2024-02-02T03:18:05.549Z,96229.84
2024-02-02T03:20:31.984Z,96224.31
2024-02-02T03:22:58.378Z,96225.63
2024-02-02T03:25:24.760Z,96223.25
2024-02-02T03:27:51.155Z,96222.97
2024-02-02T03:30:17.587Z,96226.72
2024-02-02T03:32:44.142Z,96225.16
2024-02-02T03:35:10.625Z,96228.91
2024-02-02T03:37:37.013Z,96231.25
2024-02-02T03:40:03.427Z,96230.13
2024-02-02T03:42:29.889Z,96228.69
2024-02-02T03:44:56.326Z,96227.75
2024-02-02T03:47:22.737Z,96224.31
2024-02-02T03:49:49.161Z,96230.53
2024-02-02T03:52:15.645Z,96222.28
2024-02-02T03:54:42.050Z,96227.66
2024-02-02T03:57:08.469Z,96229.03
2024-02-02T03:59:34.873Z,96227.03
2024-02-02T04:02:01.275Z,96229.25
2024-02-02T04:04:27.688Z,96229.56
2024-02-02T04:06:54.088Z,96233.13
2024-02-02T04:09:20.535Z,96240.53
2024-02-02T04:11:46.957Z,96244.38
2024-02-02T04:14:13.346Z,96243.03
2024-02-02T04:16:39.734Z,96247.41
2024-02-02T04:19:06.269Z,96248.28
2024-02-02T04:21:32.740Z,96247.03
2024-02-02T04:23:59.242Z,96240.25
2024-02-02T04:26:25.719Z,96247.88
2024-02-02T04:28:52.120Z,96257.06
2024-02-02T04:31:18.515Z,96254.09
2024-02-02T04:33:45.028Z,96251.44
2024-02-02T04:36:11.601Z,96249.78
2024-02-02T04:38:37.979Z,96245.44
2024-02-02T04:41:04.355Z,96241.56
2024-02-02T04:43:30.816Z,96238.97
2024-02-02T04:45:57.274Z,96230.41
2024-02-02T04:48:24.477Z,96243.28
2024-02-02T04:50:50.945Z,96242.13
2024-02-02T04:53:17.376Z,96252.78
2024-02-02T04:55:43.769Z,96253.91
2024-02-02T04:58:10.205Z,96253.06
2024-02-02T05:00:36.774Z,96248.81
2024-02-02T05:03:03.318Z,96249.88
2024-02-02T05:05:29.800Z,96257.78
2024-02-02T05:07:56.354Z,96262.50
2024-02-02T05:10:22.849Z,96258.59
2024-02-02T05:12:49.244Z,96265.69
2024-02-02T05:15:15.691Z,96261.22
2024-02-02T05:17:42.197Z,96267.06
2024-02-02T05:20:08.648Z,96271.44
2024-02-02T05:22:35.062Z,96276.16
2024-02-02T05:25:01.505Z,96257.75
2024-02-02T05:27:27.967Z,96254.44
2024-02-02T05:29:54.410Z,96263.22
2024-02-02T05:32:20.828Z,96261.97
2024-02-02T05:34:47.315Z,96261.03
2024-02-02T05:37:13.807Z,96273.03
2024-02-02T05:39:40.276Z,96278.56
2024-02-02T05:42:06.722Z,96283.88
2024-02-02T05:44:33.117Z,96276.25
2024-02-02T05:46:59.521Z,96276.78
2024-02-02T05:49:26.149Z,96280.13
2024-02-02T05:51:52.749Z,96273.00
2024-02-02T05:54:19.289Z,96271.16
2024-02-02T05:56:45.702Z,96273.03
2024-02-02T05:59:12.105Z,96284.53
2024-02-02T06:01:38.592Z,96289.31
2024-02-02T06:04:05.134Z,96292.88
2024-02-02T06:06:31.672Z,96292.97
2024-02-02T06:09:00.460Z,96288.56
2024-02-02T06:11:27.377Z,96282.00
2024-02-02T06:13:53.768Z,96289.41
2024-02-02T06:16:20.138Z,96291.59
2024-02-02T06:18:46.589Z,96293.28
2024-02-02T06:21:13.078Z,96287.63
2024-02-02T06:23:39.485Z,96282.41
2024-02-02T06:26:05.887Z,96273.53
2024-02-02T06:28:32.280Z,96276.63
2024-02-02T06:30:58.680Z,96272.44
2024-02-02T06:33:25.265Z,96265.22
2024-02-02T06:35:51.801Z,96273.44
2024-02-02T06:38:18.240Z,96272.34
2024-02-02T06:40:44.660Z,96279.53
2024-02-02T06:43:11.062Z,96270.75
2024-02-02T06:45:37.537Z,96270.38
2024-02-02T06:48:04.135Z,96268.31
2024-02-02T06:50:30.615Z,96264.31
2024-02-02T06:52:57.025Z,96265.00
2024-02-02T06:55:23.463Z,96268.69
2024-02-02T06:57:50.472Z,96273.25
2024-02-02T07:00:17.091Z,96278.84
2024-02-02T07:02:43.600Z,96287.28
2024-02-02T07:05:10.005Z,96295.50
2024-02-02T07:07:36.389Z,96311.56
2024-02-02T07:10:02.780Z,96307.28
2024-02-02T07:12:29.441Z,96333.91
2024-02-02T07:14:55.910Z,96347.38
2024-02-02T07:17:22.319Z,96353.72
2024-02-02T07:19:48.783Z,96362.06
2024-02-02T07:22:15.178Z,96362.81
2024-02-02T07:24:41.622Z,96362.09
2024-02-02T07:27:08.133Z,96362.16
2024-02-02T07:29:34.530Z,96366.09
2024-02-02T07:32:00.919Z,96356.44
2024-02-02T07:34:27.691Z,96350.25
2024-02-02T07:36:54.225Z,96348.56
2024-02-02T07:39:20.677Z,96355.97
2024-02-02T07:41:47.105Z,96358.19
2024-02-02T07:44:13.495Z,96350.59
2024-02-02T07:46:40.024Z,96343.47
2024-02-02T07:49:06.514Z,96359.59
2024-02-02T07:51:32.920Z,96358.56
2024-02-02T07:53:59.370Z,96359.13
2024-02-02T07:56:26.108Z,96365.28
2024-02-02T07:58:52.659Z,96370.50
2024-02-02T08:01:19.357Z,96371.00
2024-02-02T08:03:45.961Z,96367.03
2024-02-02T08:06:12.612Z,96378.09
2024-02-02T08:08:39.079Z,96387.06
2024-02-02T08:11:05.510Z,96387.78
2024-02-02T08:13:32.060Z,96393.44
2024-02-02T08:15:58.508Z,96377.75
2024-02-02T08:18:24.976Z,96380.50
2024-02-02T08:20:51.426Z,96375.91
2024-02-02T08:23:17.823Z,96373.88
2024-02-02T08:25:44.210Z,96366.47
2024-02-02T08:28:10.596Z,96359.28
2024-02-02T08:30:37.046Z,96379.53
2024-02-02T08:33:03.501Z,96378.50
2024-02-02T08:35:30.199Z,96389.47
2024-02-02T08:37:56.600Z,96392.41
2024-02-02T08:40:23.009Z,96389.47
2024-02-02T08:42:49.412Z,96398.22
2024-02-02T08:45:15.880Z,96388.66
2024-02-02T08:47:42.275Z,96390.13
2024-02-02T08:50:08.770Z,96398.28
2024-02-02T08:52:35.205Z,96381.31
2024-02-02T08:55:01.578Z,96371.13
2024-02-02T08:57:28.236Z,96371.38
2024-02-02T08:59:54.746Z,96372.56
2024-02-02T09:02:21.272Z,96375.75
2024-02-02T09:04:47.673Z,96382.69
2024-02-02T09:07:14.201Z,96394.47
2024-02-02T09:09:40.720Z,96385.88
2024-02-02T09:12:07.144Z,96363.38
2024-02-02T09:14:33.546Z,96356.03
2024-02-02T09:16:59.925Z,96377.22
2024-02-02T09:19:26.379Z,96389.84
2024-02-02T09:21:52.791Z,96387.59
2024-02-02T09:24:19.212Z,96390.56
2024-02-02T09:26:45.714Z,96385.97
2024-02-02T09:29:12.159Z,96375.81
2024-02-02T09:31:39.164Z,96362.25
2024-02-02T09:34:06.086Z,96375.72
2024-02-02T09:36:32.663Z,96378.56
2024-02-02T09:38:59.208Z,96364.41
2024-02-02T09:41:25.637Z,96380.00
2024-02-02T09:43:52.017Z,96399.94
2024-02-02T09:46:18.449Z,96397.31
2024-02-02T09:48:45.007Z,96392.06
2024-02-02T09:51:11.642Z,96378.59
2024-02-02T09:53:38.095Z,96384.78
2024-02-02T09:56:04.470Z,96389.84
2024-02-02T09:58:30.989Z,96405.59
2024-02-02T10:00:57.423Z,96403.44
2024-02-02T10:03:23.904Z,96398.81
2024-02-02T10:05:50.364Z,96409.06
2024-02-02T10:08:16.795Z,96413.34
2024-02-02T10:10:43.202Z,96407.97
2024-02-02T10:13:09.575Z,96400.41
2024-02-02T10:15:36.052Z,96402.41
2024-02-02T10:18:02.635Z,96403.91
2024-02-02T10:20:29.077Z,96418.56
2024-02-02T10:22:55.486Z,96415.75
2024-02-02T10:25:21.902Z,96411.22
2024-02-02T10:27:48.277Z,96423.53
2024-02-02T10:30:14.701Z,96426.34
2024-02-02T10:32:41.159Z,96422.03
2024-02-02T10:35:07.596Z,96428.38
2024-02-02T10:37:33.972Z,96429.56
2024-02-02T10:40:00.378Z,96421.41
2024-02-02T10:42:26.792Z,96422.34
2024-02-02T10:44:53.322Z,96410.41
2024-02-02T10:47:19.753Z,96409.88
2024-02-02T10:49:46.272Z,96406.38
2024-02-02T10:52:12.686Z,96401.25
2024-02-02T10:54:39.300Z,96412.13
2024-02-02T10:57:05.822Z,96400.66
2024-02-02T10:59:32.251Z,96402.50
2024-02-02T11:01:58.805Z,96398.56
2024-02-02T11:04:25.297Z,96395.00
2024-02-02T11:06:51.999Z,96397.53
2024-02-02T11:09:18.609Z,96395.00
2024-02-02T11:11:45.022Z,96392.69
2024-02-02T11:14:11.421Z,96390.91
2024-02-02T11:16:37.835Z,96387.47
2024-02-02T11:19:04.462Z,96391.69
2024-02-02T11:21:31.050Z,96394.31
2024-02-02T11:23:57.475Z,96394.44
2024-02-02T11:26:23.880Z,96385.28
2024-02-02T11:28:50.293Z,96387.09
2024-02-02T11:31:16.690Z,96373.19
2024-02-02T11:33:43.188Z,96369.84
2024-02-02T11:36:09.652Z,96361.19
2024-02-02T11:38:36.096Z,96354.75
2024-02-02T11:41:02.499Z,96362.97
2024-02-02T11:43:28.893Z,96367.13
2024-02-02T11:45:55.301Z,96365.53
2024-02-02T11:48:21.904Z,96357.06
2024-02-02T11:50:48.431Z,96353.88
2024-02-02T11:53:14.847Z,96349.78
2024-02-02T11:55:41.244Z,96349.06
2024-02-02T11:58:07.760Z,96343.53
2024-02-02T12:00:34.192Z,96343.41
2024-02-02T12:03:00.611Z,96336.34
2024-02-02T12:05:27.084Z,96343.28
2024-02-02T12:07:53.551Z,96338.13
2024-02-02T12:10:20.073Z,96337.72
2024-02-02T12:12:46.496Z,96332.09
2024-02-02T12:15:12.982Z,96332.84
2024-02-02T12:17:39.406Z,96327.59
2024-02-02T12:20:05.934Z,96330.81
2024-02-02T12:22:32.405Z,96331.09
2024-02-02T12:24:58.831Z,96325.75
2024-02-02T12:27:25.321Z,96327.00
2024-02-02T12:29:51.728Z,96328.63
2024-02-02T12:32:18.119Z,96323.56
2024-02-02T12:34:44.581Z,96330.19
2024-02-02T12:37:11.060Z,96326.59
2024-02-02T12:39:37.504Z,96316.91
2024-02-02T12:42:05.855Z,96319.94
2024-02-02T12:44:33.019Z,96320.38
2024-02-02T12:46:59.411Z,96319.03
2024-02-02T12:49:26.700Z,96316.22
2024-02-02T12:51:53.317Z,96306.69
2024-02-02T12:54:19.835Z,96307.94
2024-02-02T12:56:46.256Z,96307.00
2024-02-02T12:59:12.658Z,96307.81
2024-02-02T13:01:39.151Z,96313.09
2024-02-02T13:04:05.681Z,96311.19
2024-02-02T13:06:32.133Z,96305.19
2024-02-02T13:08:58.569Z,96307.69
2024-02-02T13:11:24.996Z,96306.47
2024-02-02T13:13:51.395Z,96296.50
2024-02-02T13:16:17.770Z,96299.94
2024-02-02T13:18:44.233Z,96283.91
2024-02-02T13:21:10.645Z,96288.72
2024-02-02T13:23:37.344Z,96289.56
2024-02-02T13:26:03.801Z,96293.84
2024-02-02T13:28:30.215Z,96286.66
2024-02-02T13:30:56.755Z,96282.50
2024-02-02T13:33:23.294Z,96282.09
2024-02-02T13:35:49.802Z,96285.66
2024-02-02T13:38:16.267Z,96285.41
2024-02-02T13:40:42.699Z,96290.97
2024-02-02T13:43:09.104Z,96292.34
2024-02-02T13:45:35.578Z,96294.13
2024-02-02T13:48:02.237Z,96294.00
2024-02-02T13:50:28.815Z,96282.78
2024-02-02T13:52:55.198Z,96286.47
2024-02-02T13:55:21.588Z,96282.88
2024-02-02T13:57:47.999Z,96277.19
2024-02-02T14:00:14.527Z,96276.22
2024-02-02T14:02:41.019Z,96274.00
2024-02-02T14:05:07.410Z,96271.78
2024-02-02T14:07:33.865Z,96267.66
2024-02-02T14:10:00.291Z,96262.41
2024-02-02T14:12:26.774Z,96266.59
2024-02-02T14:14:53.183Z,96264.22
2024-02-02T14:17:19.564Z,96268.13
2024-02-02T14:19:45.956Z,96270.16
2024-02-02T14:22:12.355Z,96268.66
2024-02-02T14:24:38.770Z,96276.25
2024-02-02T14:27:05.225Z,96276.25
2024-02-02T14:29:31.627Z,96277.50
2024-02-02T14:31:58.032Z,96269.03
2024-02-02T14:34:24.574Z,96269.47
2024-02-02T14:36:51.047Z,96274.75
2024-02-02T14:39:17.474Z,96271.41
2024-02-02T14:41:43.874Z,96273.75
2024-02-02T14:44:10.270Z,96273.75
2024-02-02T14:46:36.663Z,96271.00
2024-02-02T14:49:04.004Z,96275.56
2024-02-02T14:51:31.863Z,96269.63
2024-02-02T14:53:58.324Z,96271.13
2024-02-02T14:56:24.743Z,96270.28
2024-02-02T14:58:51.143Z,96263.63
2024-02-02T15:01:17.576Z,96272.50
2024-02-02T15:03:44.098Z,96278.50
2024-02-02T15:06:10.646Z,96283.59
2024-02-02T15:08:37.056Z,96292.19
2024-02-02T15:11:03.437Z,96298.28
2024-02-02T15:13:29.827Z,96298.56
2024-02-02T15:15:56.228Z,96296.47
2024-02-02T15:18:22.763Z,96299.50
2024-02-02T15:20:49.247Z,96288.84
2024-02-02T15:23:15.643Z,96297.72
2024-02-02T15:25:42.032Z,96302.00
2024-02-02T15:28:08.423Z,96300.59
2024-02-02T15:30:34.845Z,96303.81
2024-02-02T15:33:01.331Z,96295.78
2024-02-02T15:35:27.877Z,96304.50
2024-02-02T15:37:54.321Z,96305.34
2024-02-02T15:40:20.794Z,96309.47
2024-02-02T15:42:47.359Z,96301.72
2024-02-02T15:45:13.799Z,96306.28
2024-02-02T15:47:40.330Z,96300.06
2024-02-02T15:50:06.902Z,96296.16
2024-02-02T15:52:33.357Z,96289.84
2024-02-02T15:54:59.738Z,96293.56
2024-02-02T15:57:26.210Z,96293.97
2024-02-02T15:59:52.624Z,96285.94
2024-02-02T16:02:19.004Z,96287.88
2024-02-02T16:04:45.404Z,96283.31
2024-02-02T16:07:11.832Z,96281.22
2024-02-02T16:09:38.390Z,96285.50
2024-02-02T16:12:04.861Z,96284.66
2024-02-02T16:14:31.270Z,96282.47
2024-02-02T16:16:57.648Z,96283.53
2024-02-02T16:19:24.142Z,96286.97
2024-02-02T16:21:50.600Z,96283.97
2024-02-02T16:24:17.050Z,96288.09
2024-02-02T16:26:43.464Z,96294.72
2024-02-02T16:29:09.889Z,96293.34
2024-02-02T16:31:36.282Z,96291.69
2024-02-02T16:34:02.847Z,96286.69
2024-02-02T16:36:29.895Z,96290.22
2024-02-02T16:38:56.297Z,96294.34
2024-02-02T16:41:22.680Z,96295.13
2024-02-02T16:43:49.056Z,96297.25
2024-02-02T16:46:15.477Z,96289.78
2024-02-02T16:48:42.086Z,96295.66
2024-02-02T16:51:08.575Z,96285.41
2024-02-02T16:53:35.016Z,96276.19
2024-02-02T16:56:01.453Z,96276.63
2024-02-02T16:58:27.840Z,96284.41
2024-02-02T17:00:54.272Z,96277.47
2024-02-02T17:03:20.756Z,96278.44
2024-02-02T17:05:47.201Z,96276.66
2024-02-02T17:08:13.582Z,96280.41
2024-02-02T17:10:39.966Z,96284.84
2024-02-02T17:13:06.347Z,96290.09
2024-02-02T17:15:32.751Z,96294.38
2024-02-02T17:17:59.163Z,96295.19
2024-02-02T17:20:26.639Z,96284.38
2024-02-02T17:22:53.046Z,96292.72
2024-02-02T17:25:19.463Z,96287.88
2024-02-02T17:27:45.895Z,96292.75
2024-02-02T17:30:12.343Z,96293.25
2024-02-02T17:32:39.616Z,96308.75
2024-02-02T17:35:06.576Z,96297.69
2024-02-02T17:37:32.981Z,96297.31
2024-02-02T17:39:59.397Z,96296.13
2024-02-02T17:42:25.803Z,96298.03
2024-02-02T17:44:52.196Z,96296.16
2024-02-02T17:47:18.586Z,96289.81
2024-02-02T17:49:46.013Z,96294.38
2024-02-02T17:52:15.813Z,96284.59
2024-02-02T17:54:42.254Z,96284.94
2024-02-02T17:57:08.656Z,96281.53
2024-02-02T17:59:35.064Z,96281.41
2024-02-02T18:02:01.430Z,96279.00
2024-02-02T18:04:27.937Z,96276.50
2024-02-02T18:06:54.395Z,96281.38
2024-02-02T18:09:20.870Z,96283.53
2024-02-02T18:11:47.290Z,96281.75
2024-02-02T18:14:13.720Z,96292.44
2024-02-02T18:16:40.112Z,96294.59
2024-02-02T18:19:06.593Z,96300.91
2024-02-02T18:21:33.107Z,96295.69
2024-02-02T18:23:59.501Z,96298.28
2024-02-02T18:26:25.880Z,96293.88
2024-02-02T18:28:52.276Z,96295.19
2024-02-02T18:31:18.666Z,96289.22
2024-02-02T18:33:45.152Z,96283.88
2024-02-02T18:36:11.627Z,96299.97
2024-02-02T18:38:38.059Z,96299.84
2024-02-02T18:41:04.442Z,96291.72
2024-02-02T18:43:30.838Z,96293.31
2024-02-02T18:45:57.204Z,96296.59
2024-02-02T18:48:23.752Z,96288.28
2024-02-02T18:50:50.287Z,96288.16
2024-02-02T18:53:16.691Z,96283.25
2024-02-02T18:55:43.059Z,96283.84
2024-02-02T18:58:09.457Z,96281.72
2024-02-02T19:00:36.044Z,96279.94
2024-02-02T19:03:02.560Z,96281.00
2024-02-02T19:05:29.009Z,96274.81
2024-02-02T19:07:55.389Z,96275.06
2024-02-02T19:10:21.773Z,96263.53
2024-02-02T19:12:48.214Z,96268.25
2024-02-02T19:15:14.659Z,96266.22
2024-02-02T19:17:41.163Z,96269.53
2024-02-02T19:20:07.678Z,96268.84
2024-02-02T19:22:34.076Z,96264.31
2024-02-02T19:25:00.523Z,96272.88
2024-02-02T19:27:27.017Z,96261.47
2024-02-02T19:29:53.472Z,96262.53
2024-02-02T19:32:19.866Z,96261.31
2024-02-02T19:34:46.313Z,96261.81
2024-02-02T19:37:12.767Z,96261.19
2024-02-02T19:39:39.214Z,96265.59
2024-02-02T19:42:05.670Z,96262.28
2024-02-02T19:44:32.079Z,96263.47
2024-02-02T19:46:58.462Z,96256.84
2024-02-02T19:49:25.004Z,96268.00
2024-02-02T19:51:51.507Z,96258.38
2024-02-02T19:54:17.908Z,96246.38
2024-02-02T19:56:44.676Z,96260.72
2024-02-02T19:59:11.070Z,96263.34
2024-02-02T20:01:37.497Z,96266.91
2024-02-02T20:04:04.080Z,96267.50
2024-02-02T20:06:30.614Z,96270.91
2024-02-02T20:08:57.143Z,96272.44
2024-02-02T20:11:23.535Z,96270.97
2024-02-02T20:13:50.128Z,96271.31
2024-02-02T20:16:16.627Z,96266.19
2024-02-02T20:18:43.136Z,96275.56
2024-02-02T20:21:09.726Z,96269.50
2024-02-02T20:23:36.124Z,96262.97
2024-02-02T20:26:02.501Z,96268.47
2024-02-02T20:28:28.903Z,96274.81
2024-02-02T20:30:55.342Z,96267.56
2024-02-02T20:33:21.909Z,96269.91
2024-02-02T20:35:48.350Z,96265.59
2024-02-02T20:38:14.743Z,96262.91
2024-02-02T20:40:41.145Z,96269.34
2024-02-02T20:43:07.670Z,96269.34
2024-02-02T20:45:34.090Z,96265.88
2024-02-02T20:48:00.590Z,96272.63
2024-02-02T20:50:27.012Z,96270.31
2024-02-02T20:52:53.406Z,96272.00
2024-02-02T20:55:19.788Z,96267.00
2024-02-02T20:57:46.253Z,96269.84
2024-02-02T21:00:12.857Z,96268.91
2024-02-02T21:02:39.281Z,96270.13
2024-02-02T21:05:05.658Z,96266.16
2024-02-02T21:07:32.146Z,96269.03
2024-02-02T21:09:58.576Z,96268.44
2024-02-02T21:12:25.005Z,96264.78
2024-02-02T21:14:51.411Z,96257.53
2024-02-02T21:17:17.769Z,96256.41
2024-02-02T21:19:44.260Z,96262.81
2024-02-02T21:22:10.706Z,96254.16
2024-02-02T21:24:37.127Z,96261.47
2024-02-02T21:27:03.607Z,96251.66
2024-02-02T21:29:30.023Z,96252.50
2024-02-02T21:31:56.427Z,96251.53
2024-02-02T21:34:22.881Z,96250.78
2024-02-02T21:36:49.338Z,96255.09
2024-02-02T21:39:15.790Z,96252.56
2024-02-02T21:41:42.179Z,96247.81
2024-02-02T21:44:08.582Z,96241.28
2024-02-02T21:46:34.966Z,96239.44
2024-02-02T21:49:01.516Z,96236.81
2024-02-02T21:51:28.016Z,96237.84
2024-02-02T21:53:54.398Z,96233.09
2024-02-02T21:56:20.778Z,96232.34
2024-02-02T21:58:47.171Z,96233.41
2024-02-02T22:01:13.625Z,96234.13
2024-02-02T22:03:40.104Z,96236.97
2024-02-02T22:06:06.601Z,96234.13
2024-02-02T22:08:33.048Z,96234.13
2024-02-02T22:10:59.420Z,96231.22
2024-02-02T22:13:25.792Z,96232.72
2024-02-02T22:15:52.214Z,96231.13
2024-02-02T22:18:18.725Z,96240.34
2024-02-02T22:20:45.152Z,96236.44
2024-02-02T22:23:11.531Z,96234.22
2024-02-02T22:25:37.904Z,96239.22
2024-02-02T22:28:07.085Z,96240.06
2024-02-02T22:30:33.692Z,96236.00
2024-02-02T22:33:00.202Z,96238.06
2024-02-02T22:35:26.675Z,96233.84
2024-02-02T22:37:53.074Z,96234.56
2024-02-02T22:40:19.460Z,96238.41
2024-02-02T22:42:45.913Z,96241.28
2024-02-02T22:45:12.381Z,96240.91
2024-02-02T22:47:38.900Z,96242.19
2024-02-02T22:50:05.952Z,96241.34
2024-02-02T22:52:32.995Z,96238.03
2024-02-02T22:54:59.386Z,96236.84
2024-02-02T22:57:25.808Z,96234.34
2024-02-02T22:59:59.364Z,96236.66
2024-02-02T23:02:28.652Z,96238.75
2024-02-02T23:04:55.051Z,96243.97
2024-02-02T23:07:21.456Z,96241.03
2024-02-02T23:09:47.916Z,96246.25
2024-02-02T23:12:14.326Z,96233.94
2024-02-02T23:14:40.749Z,96238.44
2024-02-02T23:17:07.148Z,96234.59
2024-02-02T23:19:35.291Z,96232.81
2024-02-02T23:22:03.227Z,96232.09
2024-02-02T23:24:29.664Z,96229.81
2024-02-02T23:26:56.079Z,96221.34
2024-02-02T23:29:22.480Z,96223.66
2024-02-02T23:31:48.859Z,96234.41
2024-02-02T23:34:15.349Z,96226.06
2024-02-02T23:36:41.832Z,96222.72
2024-02-02T23:39:08.287Z,96229.09
2024-02-02T23:41:34.702Z,96234.63
2024-02-02T23:44:01.102Z,96228.38
2024-02-02T23:46:27.494Z,96235.56
2024-02-02T23:48:53.969Z,96224.97
2024-02-02T23:51:20.422Z,96231.66
2024-02-02T23:53:46.805Z,96227.00
2024-02-02T23:56:13.184Z,96229.16
2024-02-02T23:58:39.575Z,96218.41
